Time;durP1;ratioP1;P1;durP2;ratioP2;P2;SDS_P1;SDS_P2;PMS_P1;PMS_P2;Temp;Humidity;BMP_temperature;BMP_pressure;BME280_temperature;BME280_humidity;BME280_pressure;Samples;Min_cycle;Max_cycle;Signal;HPM_P1;HPM_P2
2023/04/11 00:01:57;;;;;;;2.70;1.33;;;;;;;;;;5025667;28;20280;-70
2023/04/11 00:04:24;;;;;;;9.17;1.20;;;;;;;;;;5033942;28;20284;-69
2023/04/11 00:06:49;;;;;;;9.20;1.55;;;;;;;;;;5029272;28;20764;-72
2023/04/11 00:09:15;;;;;;;0.63;0.60;;;;;;;;;;5031980;28;20026;-71
2023/04/11 00:11:40;;;;;;;6.22;1.05;;;;;;;;;;5028621;28;20047;-69
2023/04/11 00:14:07;;;;;;;3.20;0.75;;;;;;;;;;5028773;28;20476;-71
2023/04/11 00:16:33;;;;;;;8.32;1.25;;;;;;;;;;5032637;28;20021;-71
2023/04/11 00:18:58;;;;;;;11.35;2.40;;;;;;;;;;5030925;28;20036;-70
2023/04/11 00:21:24;;;;;;;3.42;0.73;;;;;;;;;;5030682;28;20021;-70
2023/04/11 00:23:51;;;;;;;1.80;0.73;;;;;;;;;;5032727;28;20017;-71
2023/04/11 00:26:16;;;;;;;3.65;1.10;;;;;;;;;;5032893;28;20021;-70
2023/04/11 00:28:41;;;;;;;4.67;0.80;;;;;;;;;;5032312;28;20393;-71
2023/04/11 00:31:06;;;;;;;1.35;0.65;;;;;;;;;;5036426;28;20276;-71
2023/04/11 00:33:31;;;;;;;8.00;1.05;;;;;;;;;;5032268;28;20030;-71
2023/04/11 00:35:57;;;;;;;4.88;0.98;;;;;;;;;;5034378;28;20029;-70
2023/04/11 00:38:22;;;;;;;5.97;1.90;;;;;;;;;;5034679;28;20022;-71
2023/04/11 00:40:47;;;;;;;4.93;1.20;;;;;;;;;;5031894;28;20121;-70
2023/04/11 00:43:12;;;;;;;5.87;0.80;;;;;;;;;;5034321;28;20268;-70
2023/04/11 00:45:37;;;;;;;3.53;0.70;;;;;;;;;;5031856;28;20292;-72
2023/04/11 00:48:03;;;;;;;3.72;0.90;;;;;;;;;;5032085;28;20029;-70
2023/04/11 00:50:28;;;;;;;4.55;0.93;;;;;;;;;;5033756;28;20049;-70
2023/04/11 00:52:54;;;;;;;8.15;1.30;;;;;;;;;;5031500;28;20098;-69
2023/04/11 00:55:20;;;;;;;2.92;1.08;;;;;;;;;;5031577;28;20057;-71
2023/04/11 00:57:45;;;;;;;5.70;0.80;;;;;;;;;;5031567;28;20017;-70
2023/04/11 01:00:11;;;;;;;7.22;1.45;;;;;;;;;;5032432;28;20025;-71
2023/04/11 01:02:37;;;;;;;6.65;0.85;;;;;;;;;;5028820;28;20375;-70
2023/04/11 01:05:06;;;;;;;8.48;1.00;;;;;;;;;;5032612;28;20686;-72
2023/04/11 01:07:33;;;;;;;4.97;1.60;;;;;;;;;;5035306;28;20029;-70
2023/04/11 01:10:00;;;;;;;2.58;1.50;;;;;;;;;;5031780;28;20548;-71
2023/04/11 01:12:25;;;;;;;6.72;0.98;;;;;;;;;;5030183;28;20017;-71
2023/04/11 01:14:50;;;;;;;7.00;1.92;;;;;;;;;;5031654;28;20515;-71
2023/04/11 01:17:16;;;;;;;9.88;1.58;;;;;;;;;;5030972;28;20025;-71
2023/04/11 01:19:41;;;;;;;11.65;1.92;;;;;;;;;;5034199;28;20026;-71
2023/04/11 01:22:06;;;;;;;13.55;3.20;;;;;;;;;;5031512;28;20013;-71
2023/04/11 01:24:32;;;;;;;7.90;1.45;;;;;;;;;;5031341;28;20040;-71
2023/04/11 01:26:57;;;;;;;14.50;1.83;;;;;;;;;;5029635;28;20418;-71
2023/04/11 01:29:22;;;;;;;14.48;1.42;;;;;;;;;;5030244;28;20113;-71
2023/04/11 01:31:48;;;;;;;13.30;2.03;;;;;;;;;;5030203;28;20069;-71
2023/04/11 01:34:15;;;;;;;14.85;3.22;;;;;;;;;;5030509;28;20843;-71
2023/04/11 01:36:41;;;;;;;16.85;3.10;;;;;;;;;;5031571;28;20025;-71
2023/04/11 01:39:06;;;;;;;14.32;2.55;;;;;;;;;;5030413;28;20017;-71
2023/04/11 01:41:32;;;;;;;15.45;2.72;;;;;;;;;;5030567;28;20045;-71
2023/04/11 01:43:58;;;;;;;30.48;3.60;;;;;;;;;;5030734;28;20018;-71
2023/04/11 01:46:23;;;;;;;20.98;2.72;;;;;;;;;;5034581;28;20021;-71
2023/04/11 01:48:49;;;;;;;21.37;3.00;;;;;;;;;;5029989;28;20017;-70
2023/04/11 01:51:14;;;;;;;12.63;2.17;;;;;;;;;;5029161;28;20342;-71
2023/04/11 01:53:39;;;;;;;17.90;2.97;;;;;;;;;;5033737;28;20509;-70
2023/04/11 01:56:05;;;;;;;12.15;2.83;;;;;;;;;;5033799;28;20286;-71
2023/04/11 01:58:30;;;;;;;11.18;2.03;;;;;;;;;;5030725;28;20030;-71
2023/04/11 02:00:55;;;;;;;15.70;1.77;;;;;;;;;;5030702;28;20013;-71
2023/04/11 02:03:21;;;;;;;14.88;2.47;;;;;;;;;;5030206;28;20645;-71
2023/04/11 02:05:46;;;;;;;16.20;3.40;;;;;;;;;;5029867;28;20010;-71
2023/04/11 02:08:11;;;;;;;11.07;1.70;;;;;;;;;;5030715;28;20028;-71
2023/04/11 02:10:37;;;;;;;5.17;1.93;;;;;;;;;;5035093;28;20029;-71
2023/04/11 02:13:02;;;;;;;15.50;2.15;;;;;;;;;;5029772;28;20693;-70
2023/04/11 02:15:27;;;;;;;21.35;3.50;;;;;;;;;;5030378;28;20025;-71
2023/04/11 02:17:53;;;;;;;20.23;3.33;;;;;;;;;;5035849;28;20363;-70
2023/04/11 02:20:20;;;;;;;15.30;2.42;;;;;;;;;;5031529;28;20268;-71
2023/04/11 02:22:45;;;;;;;20.83;3.15;;;;;;;;;;5029042;28;20018;-71
2023/04/11 02:25:10;;;;;;;43.47;4.47;;;;;;;;;;5031160;28;20036;-70
2023/04/11 02:27:35;;;;;;;29.60;4.23;;;;;;;;;;5025234;28;20321;-71
2023/04/11 02:30:04;;;;;;;13.95;2.63;;;;;;;;;;5030246;28;20279;-70
2023/04/11 02:32:29;;;;;;;26.02;5.78;;;;;;;;;;5028466;28;20108;-72
2023/04/11 02:34:55;;;;;;;12.35;2.90;;;;;;;;;;5028659;28;20534;-71
2023/04/11 02:37:20;;;;;;;21.90;3.00;;;;;;;;;;5029430;28;20628;-71
2023/04/11 02:39:45;;;;;;;23.42;2.95;;;;;;;;;;5029642;28;20025;-71
2023/04/11 02:42:11;;;;;;;12.37;2.87;;;;;;;;;;5030628;28;20569;-71
2023/04/11 02:44:36;;;;;;;34.40;4.13;;;;;;;;;;5029173;28;20311;-70
2023/04/11 02:47:01;;;;;;;32.10;4.00;;;;;;;;;;5029352;28;20043;-70
2023/04/11 02:49:26;;;;;;;27.80;3.85;;;;;;;;;;5030731;28;20761;-70
2023/04/11 02:51:52;;;;;;;25.95;3.58;;;;;;;;;;5029776;28;20501;-71
2023/04/11 02:54:17;;;;;;;16.45;4.07;;;;;;;;;;5029397;28;20702;-71
2023/04/11 02:56:42;;;;;;;21.70;4.37;;;;;;;;;;5029376;28;20496;-71
2023/04/11 02:59:07;;;;;;;22.17;3.47;;;;;;;;;;5030668;28;20280;-71
2023/04/11 03:01:33;;;;;;;29.90;6.00;;;;;;;;;;5030208;28;20025;-71
2023/04/11 03:03:58;;;;;;;23.52;4.50;;;;;;;;;;5028824;28;20261;-70
2023/04/11 03:06:23;;;;;;;12.50;3.13;;;;;;;;;;5030270;28;20075;-71
2023/04/11 03:08:48;;;;;;;17.33;4.05;;;;;;;;;;5027993;28;20096;-71
2023/04/11 03:11:14;;;;;;;29.50;4.30;;;;;;;;;;5029597;28;20021;-70
2023/04/11 03:13:39;;;;;;;25.27;5.88;;;;;;;;;;5028770;28;20148;-71
2023/04/11 03:16:05;;;;;;;14.48;2.28;;;;;;;;;;5030242;28;20028;-70
2023/04/11 03:18:30;;;;;;;8.18;2.10;;;;;;;;;;5030260;28;20067;-71
2023/04/11 03:20:55;;;;;;;22.95;3.28;;;;;;;;;;5027575;28;20028;-70
2023/04/11 03:23:21;;;;;;;26.20;3.17;;;;;;;;;;5027814;28;20009;-71
2023/04/11 03:25:47;;;;;;;14.47;2.73;;;;;;;;;;5029088;28;20275;-70
2023/04/11 03:28:12;;;;;;;29.35;3.22;;;;;;;;;;5029117;28;20272;-71
2023/04/11 03:30:39;;;;;;;22.92;3.00;;;;;;;;;;5028183;28;20031;-71
2023/04/11 03:33:05;;;;;;;26.20;3.67;;;;;;;;;;5028216;28;20025;-71
2023/04/11 03:35:30;;;;;;;27.10;2.90;;;;;;;;;;5029403;28;20033;-70
2023/04/11 03:37:56;;;;;;;21.75;3.00;;;;;;;;;;5027921;28;20021;-71
2023/04/11 03:40:21;;;;;;;16.15;2.90;;;;;;;;;;5029661;28;20029;-71
2023/04/11 03:42:46;;;;;;;17.88;2.75;;;;;;;;;;5028222;28;20521;-71
2023/04/11 03:45:11;;;;;;;17.73;2.67;;;;;;;;;;5028305;28;20048;-71
2023/04/11 03:47:37;;;;;;;22.63;3.00;;;;;;;;;;5027359;28;20384;-70
2023/04/11 03:50:02;;;;;;;24.13;2.90;;;;;;;;;;5034199;28;20284;-71
2023/04/11 03:52:27;;;;;;;23.40;3.65;;;;;;;;;;5032615;28;20056;-71
2023/04/11 03:54:53;;;;;;;11.77;3.53;;;;;;;;;;5032564;28;20037;-70
2023/04/11 03:57:18;;;;;;;7.00;1.77;;;;;;;;;;5032499;28;20272;-70
2023/04/11 03:59:43;;;;;;;18.43;2.10;;;;;;;;;;5032412;28;20299;-70
2023/04/11 04:02:08;;;;;;;18.55;2.38;;;;;;;;;;5034984;28;20342;-70
2023/04/11 04:04:33;;;;;;;17.65;3.10;;;;;;;;;;5030478;28;20029;-70
2023/04/11 04:07:00;;;;;;;13.10;2.07;;;;;;;;;;5030270;28;20033;-71
2023/04/11 04:09:25;;;;;;;6.13;1.23;;;;;;;;;;5032222;28;20317;-71
2023/04/11 04:11:50;;;;;;;20.73;3.87;;;;;;;;;;5032890;28;20402;-70
2023/04/11 04:14:16;;;;;;;15.50;3.57;;;;;;;;;;5036544;28;20291;-70
2023/04/11 04:16:41;;;;;;;26.08;2.97;;;;;;;;;;5032325;28;20334;-71
2023/04/11 04:19:06;;;;;;;10.07;2.58;;;;;;;;;;5033536;28;20017;-71
2023/04/11 04:21:32;;;;;;;14.35;2.22;;;;;;;;;;5031927;28;20036;-71
2023/04/11 04:24:02;;;;;;;23.98;3.10;;;;;;;;;;5035238;28;20033;-71
2023/04/11 04:26:30;;;;;;;15.18;2.65;;;;;;;;;;5031675;28;20021;-70
2023/04/11 04:29:03;;;;;;;24.67;3.47;;;;;;;;;;5032659;28;20029;-71
2023/04/11 04:31:32;;;;;;;16.17;2.40;;;;;;;;;;5031524;28;20029;-70
2023/04/11 04:33:57;;;;;;;4.93;1.55;;;;;;;;;;5036659;28;20083;-71
2023/04/11 04:36:23;;;;;;;34.85;2.67;;;;;;;;;;5030485;28;20021;-70
2023/04/11 04:38:49;;;;;;;18.20;2.63;;;;;;;;;;5032390;28;20040;-70
2023/04/11 04:41:14;;;;;;;20.63;3.75;;;;;;;;;;5031785;28;20060;-70
2023/04/11 04:43:41;;;;;;;23.70;4.55;;;;;;;;;;5033398;28;20068;-71
2023/04/11 04:46:07;;;;;;;21.83;3.20;;;;;;;;;;5027513;28;20553;-71
2023/04/11 04:48:32;;;;;;;29.77;3.97;;;;;;;;;;5031068;28;20108;-71
2023/04/11 04:50:57;;;;;;;23.98;4.22;;;;;;;;;;5030988;28;20125;-70
2023/04/11 04:53:22;;;;;;;32.37;3.80;;;;;;;;;;5035734;28;20025;-71
2023/04/11 04:55:47;;;;;;;21.20;4.45;;;;;;;;;;5032552;28;20279;-70
2023/04/11 04:58:12;;;;;;;26.40;4.33;;;;;;;;;;5031167;28;20053;-70
2023/04/11 05:00:39;;;;;;;21.87;3.83;;;;;;;;;;5031560;28;20676;-70
2023/04/11 05:03:04;;;;;;;33.47;3.78;;;;;;;;;;5031623;28;20268;-70
2023/04/11 05:05:29;;;;;;;27.55;4.20;;;;;;;;;;5032674;28;20013;-70
2023/04/11 05:07:54;;;;;;;34.10;3.58;;;;;;;;;;5033499;28;20367;-70
2023/04/11 05:10:20;;;;;;;34.40;4.77;;;;;;;;;;5031324;28;20047;-71
2023/04/11 05:12:45;;;;;;;13.50;2.50;;;;;;;;;;5030668;28;20280;-70
2023/04/11 05:15:10;;;;;;;36.00;4.97;;;;;;;;;;5032412;28;20013;-70
2023/04/11 05:17:35;;;;;;;21.00;4.07;;;;;;;;;;5029142;28;20017;-71
2023/04/11 05:20:01;;;;;;;28.90;4.80;;;;;;;;;;5030503;28;20082;-71
2023/04/11 05:22:26;;;;;;;34.95;4.63;;;;;;;;;;5033992;28;20049;-70
2023/04/11 05:24:51;;;;;;;16.98;3.83;;;;;;;;;;5030145;28;20033;-70
2023/04/11 05:27:17;;;;;;;20.20;4.30;;;;;;;;;;5028232;28;20703;-71
2023/04/11 05:29:42;;;;;;;24.27;3.42;;;;;;;;;;5027379;28;20272;-71
2023/04/11 05:32:07;;;;;;;13.23;4.20;;;;;;;;;;5030690;28;20841;-71
2023/04/11 05:34:33;;;;;;;35.63;5.37;;;;;;;;;;5028131;28;20302;-71
2023/04/11 05:36:58;;;;;;;31.85;5.72;;;;;;;;;;5029200;28;20283;-71
2023/04/11 05:39:23;;;;;;;24.35;4.03;;;;;;;;;;5028401;28;20356;-70
2023/04/11 05:41:49;;;;;;;31.05;5.35;;;;;;;;;;5028404;28;20025;-71
2023/04/11 05:44:14;;;;;;;31.55;4.55;;;;;;;;;;5030590;28;20021;-70
2023/04/11 05:46:39;;;;;;;24.88;4.28;;;;;;;;;;5026951;28;20679;-72
2023/04/11 05:49:05;;;;;;;20.15;4.03;;;;;;;;;;5027345;28;20573;-70
2023/04/11 05:51:30;;;;;;;12.85;3.85;;;;;;;;;;5028870;28;20510;-70
2023/04/11 05:53:55;;;;;;;26.50;3.50;;;;;;;;;;5025592;28;20160;-71
2023/04/11 05:56:20;;;;;;;28.17;4.47;;;;;;;;;;5029337;28;20021;-70
2023/04/11 05:58:45;;;;;;;17.85;4.07;;;;;;;;;;5028973;28;20282;-71
2023/04/11 06:01:17;;;;;;;21.90;4.25;;;;;;;;;;5029180;28;20075;-71
2023/04/11 06:03:42;;;;;;;23.33;4.00;;;;;;;;;;5026746;28;20025;-70
2023/04/11 06:06:08;;;;;;;24.48;3.75;;;;;;;;;;5029608;28;20017;-70
2023/04/11 06:08:33;;;;;;;18.00;3.35;;;;;;;;;;5030670;28;20048;-71
2023/04/11 06:10:58;;;;;;;29.38;3.90;;;;;;;;;;5030187;28;20529;-70
2023/04/11 06:13:24;;;;;;;19.03;3.73;;;;;;;;;;5029082;28;20025;-71
2023/04/11 06:15:50;;;;;;;31.80;4.88;;;;;;;;;;5029269;28;20288;-70
2023/04/11 06:18:15;;;;;;;19.65;3.95;;;;;;;;;;5029290;28;20097;-70
2023/04/11 06:20:40;;;;;;;15.83;4.47;;;;;;;;;;5033003;28;20084;-70
2023/04/11 06:23:05;;;;;;;20.52;4.10;;;;;;;;;;5029274;28;20274;-71
2023/04/11 06:25:31;;;;;;;14.43;3.88;;;;;;;;;;5028579;28;20022;-70
2023/04/11 06:27:56;;;;;;;20.13;3.20;;;;;;;;;;5028680;28;20030;-71
2023/04/11 06:30:21;;;;;;;14.03;4.20;;;;;;;;;;5028144;28;20025;-71
2023/04/11 06:32:46;;;;;;;19.13;4.03;;;;;;;;;;5026321;28;20325;-71
2023/04/11 06:35:12;;;;;;;20.13;4.25;;;;;;;;;;5025387;28;20025;-70
2023/04/11 06:37:37;;;;;;;25.20;3.83;;;;;;;;;;5022332;28;20104;-71
2023/04/11 06:40:04;;;;;;;18.02;3.35;;;;;;;;;;5025440;28;20101;-71
2023/04/11 06:42:29;;;;;;;13.73;3.08;;;;;;;;;;5027581;28;20024;-71
2023/04/11 06:44:55;;;;;;;17.73;3.38;;;;;;;;;;5029791;28;20029;-71
2023/04/11 06:47:20;;;;;;;16.38;2.88;;;;;;;;;;5026474;28;20025;-70
2023/04/11 06:49:45;;;;;;;18.13;3.85;;;;;;;;;;5028800;28;20482;-71
2023/04/11 06:52:10;;;;;;;18.20;2.45;;;;;;;;;;5030639;28;20475;-71
2023/04/11 06:54:35;;;;;;;27.13;4.15;;;;;;;;;;5027772;28;20386;-71
2023/04/11 06:57:01;;;;;;;17.23;3.53;;;;;;;;;;5025655;28;20681;-71
2023/04/11 06:59:26;;;;;;;20.52;4.03;;;;;;;;;;5031331;28;20283;-71
2023/04/11 07:01:51;;;;;;;17.65;3.55;;;;;;;;;;5027309;28;20040;-70
2023/04/11 07:04:16;;;;;;;16.50;4.22;;;;;;;;;;5029819;28;20036;-70
2023/04/11 07:06:42;;;;;;;13.50;3.93;;;;;;;;;;5027131;28;20156;-70
2023/04/11 07:09:11;;;;;;;18.95;3.53;;;;;;;;;;5027315;28;20284;-71
2023/04/11 07:11:37;;;;;;;12.88;4.35;;;;;;;;;;5030734;28;20017;-70
2023/04/11 07:14:02;;;;;;;18.23;3.47;;;;;;;;;;5028470;28;21643;-70
2023/04/11 07:16:27;;;;;;;19.77;4.18;;;;;;;;;;5027472;28;20021;-71
2023/04/11 07:18:53;;;;;;;14.73;3.17;;;;;;;;;;5027777;28;20112;-70
2023/04/11 07:21:18;;;;;;;16.65;3.95;;;;;;;;;;5025126;28;20031;-70
2023/04/11 07:23:44;;;;;;;16.77;3.10;;;;;;;;;;5029720;28;20028;-71
2023/04/11 07:26:10;;;;;;;16.95;3.00;;;;;;;;;;5029056;28;20095;-70
2023/04/11 07:28:39;;;;;;;21.13;4.13;;;;;;;;;;5030025;28;20025;-70
2023/04/11 07:31:06;;;;;;;23.35;3.13;;;;;;;;;;5033745;28;20103;-70
2023/04/11 07:33:31;;;;;;;24.60;4.55;;;;;;;;;;5029337;28;20489;-70
2023/04/11 07:35:57;;;;;;;16.10;3.67;;;;;;;;;;5029769;28;20118;-70
2023/04/11 07:38:28;;;;;;;19.17;3.22;;;;;;;;;;5027077;28;20265;-70
2023/04/11 07:40:56;;;;;;;12.85;2.83;;;;;;;;;;5022928;28;20026;-71
2023/04/11 07:43:22;;;;;;;29.48;3.33;;;;;;;;;;5030627;28;20088;-71
2023/04/11 07:45:47;;;;;;;23.80;3.38;;;;;;;;;;5031739;28;20105;-71
2023/04/11 07:48:12;;;;;;;17.60;3.20;;;;;;;;;;5028941;28;20029;-72
2023/04/11 07:50:38;;;;;;;27.60;3.08;;;;;;;;;;5028289;28;20545;-71
2023/04/11 07:53:03;;;;;;;21.13;3.57;;;;;;;;;;5025808;28;20169;-71
2023/04/11 07:55:28;;;;;;;16.30;3.20;;;;;;;;;;5026148;28;20292;-72
2023/04/11 07:57:53;;;;;;;26.20;3.85;;;;;;;;;;5024222;28;20298;-71
2023/04/11 08:00:19;;;;;;;13.93;2.63;;;;;;;;;;5026434;28;20109;-72
2023/04/11 08:02:44;;;;;;;11.70;2.40;;;;;;;;;;5024162;28;20562;-72
2023/04/11 08:05:10;;;;;;;15.17;3.53;;;;;;;;;;5027497;28;20032;-72
2023/04/11 08:07:35;;;;;;;12.00;2.47;;;;;;;;;;5028819;28;20256;-72
2023/04/11 08:10:00;;;;;;;17.23;2.97;;;;;;;;;;5029741;28;20057;-71
2023/04/11 08:12:25;;;;;;;11.25;2.80;;;;;;;;;;5027784;28;20819;-72
2023/04/11 08:14:50;;;;;;;18.33;3.00;;;;;;;;;;5028739;28;20069;-71
2023/04/11 08:17:16;;;;;;;16.30;2.33;;;;;;;;;;5029102;28;20322;-71
2023/04/11 08:19:41;;;;;;;25.85;2.88;;;;;;;;;;5026838;28;20264;-72
2023/04/11 08:22:06;;;;;;;8.43;2.43;;;;;;;;;;5027794;28;20052;-72
2023/04/11 08:24:31;;;;;;;10.77;2.93;;;;;;;;;;5028275;28;20283;-73
2023/04/11 08:26:56;;;;;;;16.13;2.93;;;;;;;;;;5028275;28;20679;-72
2023/04/11 08:29:22;;;;;;;18.57;2.57;;;;;;;;;;5028523;28;20308;-73
2023/04/11 08:31:47;;;;;;;13.38;2.60;;;;;;;;;;5027630;28;20268;-72
2023/04/11 08:34:12;;;;;;;13.13;3.10;;;;;;;;;;5027693;28;20028;-72
2023/04/11 08:36:37;;;;;;;14.17;3.00;;;;;;;;;;5029569;28;20274;-72
2023/04/11 08:39:02;;;;;;;6.63;1.73;;;;;;;;;;5031178;28;20279;-72
2023/04/11 08:41:29;;;;;;;12.07;2.45;;;;;;;;;;5031588;28;20052;-72
2023/04/11 08:43:55;;;;;;;14.50;2.35;;;;;;;;;;5031905;28;20683;-72
2023/04/11 08:46:20;;;;;;;10.95;2.15;;;;;;;;;;5031775;28;20022;-71
2023/04/11 08:48:45;;;;;;;10.47;2.17;;;;;;;;;;5030592;28;20033;-72
2023/04/11 08:51:11;;;;;;;14.65;2.58;;;;;;;;;;5029424;28;20279;-71
2023/04/11 08:53:37;;;;;;;19.17;3.05;;;;;;;;;;5031544;28;20100;-72
2023/04/11 08:56:02;;;;;;;13.43;1.90;;;;;;;;;;5032251;28;20471;-71
2023/04/11 08:58:28;;;;;;;12.82;2.20;;;;;;;;;;5032463;28;20028;-72
2023/04/11 09:00:53;;;;;;;9.85;1.60;;;;;;;;;;5029080;28;20398;-71
2023/04/11 09:03:18;;;;;;;9.37;1.53;;;;;;;;;;5030257;28;20032;-71
2023/04/11 09:05:44;;;;;;;11.93;1.73;;;;;;;;;;5030998;28;20276;-72
2023/04/11 09:08:10;;;;;;;8.13;2.10;;;;;;;;;;5032590;28;20071;-71
2023/04/11 09:10:36;;;;;;;5.43;1.17;;;;;;;;;;5030205;28;20044;-72
2023/04/11 09:13:21;;;;;;;10.27;2.65;;;;;;;;;;5031086;28;20025;-72
2023/04/11 09:15:47;;;;;;;17.55;1.90;;;;;;;;;;5026109;28;20036;-72
2023/04/11 09:21:15;;;;;;;10.25;2.30;;;;;;;;;;5027195;28;20023;-72
2023/04/11 09:23:41;;;;;;;8.48;1.80;;;;;;;;;;5029457;28;20025;-72
2023/04/11 09:26:07;;;;;;;17.13;2.92;;;;;;;;;;5026320;28;20029;-72
2023/04/11 09:28:40;;;;;;;16.75;2.83;;;;;;;;;;5025227;28;20040;-72
2023/04/11 09:31:05;;;;;;;12.23;1.92;;;;;;;;;;5025131;28;20036;-72
2023/04/11 09:33:31;;;;;;;11.07;1.63;;;;;;;;;;5028904;28;20029;-72
2023/04/11 09:35:56;;;;;;;10.25;1.98;;;;;;;;;;5028573;28;20420;-72
2023/04/11 09:38:32;;;;;;;12.13;2.55;;;;;;;;;;5028886;28;20028;-73
2023/04/11 09:40:57;;;;;;;11.23;1.60;;;;;;;;;;5025840;28;20078;-73
2023/04/11 09:43:23;;;;;;;11.23;1.80;;;;;;;;;;5029458;28;20462;-73
2023/04/11 09:46:05;;;;;;;13.35;1.90;;;;;;;;;;5029292;28;20036;-72
2023/04/11 09:48:31;;;;;;;8.20;1.90;;;;;;;;;;5028473;28;20683;-72
2023/04/11 09:50:56;;;;;;;16.85;3.15;;;;;;;;;;5028507;28;20034;-73
2023/04/11 09:53:21;;;;;;;9.80;1.40;;;;;;;;;;5029498;28;20022;-73
2023/04/11 09:55:46;;;;;;;13.65;1.88;;;;;;;;;;5030231;28;20163;-73
2023/04/11 09:58:12;;;;;;;9.90;1.45;;;;;;;;;;5030996;28;20025;-73
2023/04/11 10:00:38;;;;;;;11.57;2.20;;;;;;;;;;5026259;28;20029;-73
2023/04/11 10:03:04;;;;;;;12.65;1.58;;;;;;;;;;5024868;28;20275;-73
2023/04/11 10:05:30;;;;;;;10.45;1.50;;;;;;;;;;5032241;28;20025;-73
2023/04/11 10:08:01;;;;;;;8.75;1.60;;;;;;;;;;5030614;28;20025;-73
2023/04/11 10:10:26;;;;;;;8.20;1.73;;;;;;;;;;5029299;28;20021;-72
2023/04/11 10:12:51;;;;;;;8.60;1.90;;;;;;;;;;5033976;28;20036;-73
2023/04/11 10:15:17;;;;;;;9.43;2.00;;;;;;;;;;5028196;28;20363;-73
2023/04/11 10:18:02;;;;;;;12.50;2.53;;;;;;;;;;5028473;28;20272;-73
2023/04/11 10:20:30;;;;;;;10.57;1.98;;;;;;;;;;5028993;28;20486;-73
2023/04/11 10:22:59;;;;;;;6.55;1.88;;;;;;;;;;5030051;28;20462;-73
2023/04/11 10:25:25;;;;;;;8.13;1.55;;;;;;;;;;5028761;28;20017;-73
2023/04/11 10:27:52;;;;;;;5.55;1.25;;;;;;;;;;5029798;28;20032;-73
2023/04/11 10:30:17;;;;;;;8.02;1.80;;;;;;;;;;5030322;28;20509;-73
2023/04/11 10:33:01;;;;;;;9.32;1.60;;;;;;;;;;5033489;28;20033;-73
2023/04/11 10:35:28;;;;;;;7.22;1.42;;;;;;;;;;5033099;28;20590;-73
2023/04/11 10:37:53;;;;;;;12.52;1.90;;;;;;;;;;5029127;28;20022;-73
2023/04/11 10:40:19;;;;;;;11.97;2.07;;;;;;;;;;5030326;28;20086;-73
2023/04/11 10:42:45;;;;;;;11.45;2.50;;;;;;;;;;5027638;28;20279;-73
2023/04/11 10:45:26;;;;;;;2.00;1.23;;;;;;;;;;5031600;28;20025;-73
2023/04/11 10:47:55;;;;;;;14.50;2.05;;;;;;;;;;5023908;28;20086;-72
2023/04/11 10:50:26;;;;;;;11.27;1.63;;;;;;;;;;5036161;28;20029;-72
2023/04/11 10:52:51;;;;;;;9.93;1.67;;;;;;;;;;5030641;28;20112;-73
2023/04/11 10:55:17;;;;;;;11.30;1.90;;;;;;;;;;5028864;28;20112;-72
2023/04/11 10:58:00;;;;;;;8.30;1.90;;;;;;;;;;5041925;28;20029;-72
2023/04/11 11:00:26;;;;;;;15.93;2.67;;;;;;;;;;5030108;28;20435;-72
2023/04/11 11:02:52;;;;;;;21.15;3.08;;;;;;;;;;5037029;28;20473;-72
2023/04/11 11:05:18;;;;;;;12.23;2.30;;;;;;;;;;5029610;28;20033;-73
2023/04/11 11:07:47;;;;;;;10.70;2.63;;;;;;;;;;5027850;28;20445;-72
2023/04/11 11:10:12;;;;;;;10.75;2.00;;;;;;;;;;5025083;28;20088;-72
2023/04/11 11:12:50;;;;;;;13.40;2.35;;;;;;;;;;5031933;28;20026;-72
2023/04/11 11:15:15;;;;;;;7.78;1.45;;;;;;;;;;5026649;28;20096;-72
2023/04/11 11:17:41;;;;;;;5.10;1.23;;;;;;;;;;5028911;28;20033;-72
2023/04/11 11:20:14;;;;;;;7.72;1.10;;;;;;;;;;5030069;28;20424;-72
2023/04/11 11:22:39;;;;;;;3.17;0.82;;;;;;;;;;5028866;28;20029;-72
2023/04/11 11:25:07;;;;;;;7.05;1.27;;;;;;;;;;5028832;28;20017;-72
2023/04/11 11:27:33;;;;;;;7.57;1.48;;;;;;;;;;5027779;28;20024;-72
2023/04/11 11:30:08;;;;;;;12.10;1.73;;;;;;;;;;5031157;28;20033;-72
2023/04/11 11:32:33;;;;;;;9.73;1.80;;;;;;;;;;5028115;28;20690;-72
2023/04/11 11:34:59;;;;;;;7.27;1.50;;;;;;;;;;5028103;28;20029;-72
2023/04/11 11:37:24;;;;;;;12.05;2.55;;;;;;;;;;5028791;28;20358;-72
2023/04/11 11:39:50;;;;;;;5.15;1.40;;;;;;;;;;5024509;28;20075;-72
2023/04/11 11:42:15;;;;;;;7.15;1.50;;;;;;;;;;5030381;28;20530;-72
2023/04/11 11:44:40;;;;;;;8.00;1.65;;;;;;;;;;5031138;28;20120;-72
2023/04/11 11:47:11;;;;;;;7.25;1.48;;;;;;;;;;5030284;28;20514;-72
2023/04/11 11:49:48;;;;;;;9.35;1.92;;;;;;;;;;5028828;28;20024;-72
2023/04/11 11:52:32;;;;;;;5.05;1.15;;;;;;;;;;5032656;28;20040;-72
2023/04/11 11:54:57;;;;;;;6.60;0.85;;;;;;;;;;5027615;28;20096;-72
2023/04/11 11:57:22;;;;;;;7.30;1.40;;;;;;;;;;5029930;28;20020;-72
2023/04/11 11:59:55;;;;;;;12.98;2.25;;;;;;;;;;5028685;28;20018;-72
2023/04/11 12:02:24;;;;;;;9.35;1.92;;;;;;;;;;5029288;28;20105;-72
2023/04/11 12:04:54;;;;;;;13.35;2.03;;;;;;;;;;5025410;28;20510;-72
2023/04/11 12:07:19;;;;;;;7.68;1.70;;;;;;;;;;5028321;28;20064;-72
2023/04/11 12:09:46;;;;;;;18.75;1.85;;;;;;;;;;5032169;28;20049;-72
2023/04/11 12:12:13;;;;;;;7.90;1.58;;;;;;;;;;5032119;28;20710;-72
2023/04/11 12:14:38;;;;;;;7.88;1.50;;;;;;;;;;5031690;28;20035;-72
2023/04/11 12:17:07;;;;;;;7.72;2.22;;;;;;;;;;5040605;28;20096;-72
2023/04/11 12:19:32;;;;;;;8.65;1.77;;;;;;;;;;5033683;28;20079;-72
2023/04/11 12:21:57;;;;;;;10.30;2.63;;;;;;;;;;5027891;28;20021;-72
2023/04/11 12:24:22;;;;;;;6.50;2.50;;;;;;;;;;5032071;28;20021;-72
2023/04/11 12:26:47;;;;;;;12.07;1.97;;;;;;;;;;5030409;28;20537;-73
2023/04/11 12:29:12;;;;;;;5.88;1.00;;;;;;;;;;5030493;28;20056;-72
2023/04/11 12:31:37;;;;;;;10.02;2.10;;;;;;;;;;5037262;28;20025;-72
2023/04/11 12:34:02;;;;;;;11.50;1.58;;;;;;;;;;5031545;28;20433;-72
2023/04/11 12:36:28;;;;;;;9.33;1.60;;;;;;;;;;5037729;28;20036;-72
2023/04/11 12:38:53;;;;;;;12.45;1.73;;;;;;;;;;5030769;28;20018;-72
2023/04/11 12:41:18;;;;;;;3.40;1.05;;;;;;;;;;5030902;28;20025;-72
2023/04/11 12:43:44;;;;;;;9.02;1.40;;;;;;;;;;5031491;28;20079;-72
2023/04/11 12:46:10;;;;;;;5.88;1.27;;;;;;;;;;5035759;28;20032;-72
2023/04/11 12:48:35;;;;;;;9.00;1.85;;;;;;;;;;5033447;28;20434;-72
2023/04/11 12:51:00;;;;;;;9.13;1.17;;;;;;;;;;5032614;28;20030;-72
2023/04/11 12:53:25;;;;;;;6.43;1.45;;;;;;;;;;5036254;28;20048;-72
2023/04/11 12:55:51;;;;;;;5.28;1.20;;;;;;;;;;5032116;28;20029;-72
2023/04/11 12:58:17;;;;;;;15.63;3.33;;;;;;;;;;5030009;28;20670;-72
2023/04/11 13:00:42;;;;;;;12.95;2.45;;;;;;;;;;5029445;28;20268;-71
2023/04/11 13:03:07;;;;;;;10.90;1.50;;;;;;;;;;5030992;28;20024;-72
2023/04/11 13:05:32;;;;;;;7.30;1.33;;;;;;;;;;5038047;28;20624;-72
2023/04/11 13:07:57;;;;;;;5.20;1.55;;;;;;;;;;5032083;28;20179;-71
2023/04/11 13:10:23;;;;;;;8.98;1.27;;;;;;;;;;5031143;28;20057;-71
2023/04/11 13:12:52;;;;;;;11.50;1.55;;;;;;;;;;5031641;28;20033;-71
2023/04/11 13:15:17;;;;;;;6.22;1.23;;;;;;;;;;5031010;28;20067;-72
2023/04/11 13:17:42;;;;;;;8.00;1.27;;;;;;;;;;5034164;28;20465;-71
2023/04/11 13:20:11;;;;;;;8.68;1.10;;;;;;;;;;5033962;28;20025;-71
2023/04/11 13:22:37;;;;;;;9.23;1.40;;;;;;;;;;5033141;28;20060;-72
2023/04/11 13:25:02;;;;;;;8.18;1.60;;;;;;;;;;5038281;28;20033;-71
2023/04/11 13:27:28;;;;;;;9.10;0.85;;;;;;;;;;5026688;28;20032;-71
2023/04/11 13:29:53;;;;;;;3.73;1.03;;;;;;;;;;5037237;28;20025;-71
2023/04/11 13:32:18;;;;;;;4.35;1.05;;;;;;;;;;5026027;28;20269;-72
2023/04/11 13:34:43;;;;;;;5.32;0.60;;;;;;;;;;5032055;28;20032;-72
2023/04/11 13:37:08;;;;;;;4.78;1.13;;;;;;;;;;5031474;28;20143;-72
2023/04/11 13:39:34;;;;;;;3.73;1.43;;;;;;;;;;5030373;28;20355;-72
2023/04/11 13:41:59;;;;;;;11.13;2.00;;;;;;;;;;5032364;28;20312;-73
2023/04/11 13:44:24;;;;;;;8.27;1.77;;;;;;;;;;5030383;28;20287;-73
2023/04/11 13:46:49;;;;;;;8.23;1.40;;;;;;;;;;5030831;28;20280;-73
2023/04/11 13:49:14;;;;;;;6.70;1.87;;;;;;;;;;5035842;28;20029;-73
2023/04/11 13:51:40;;;;;;;5.65;1.10;;;;;;;;;;5031476;28;20737;-75
2023/04/11 13:54:05;;;;;;;4.03;0.73;;;;;;;;;;5030433;28;20482;-74
2023/04/11 13:56:30;;;;;;;5.67;1.10;;;;;;;;;;5031076;28;20053;-74
2023/04/11 13:58:55;;;;;;;5.50;1.33;;;;;;;;;;5040363;28;20276;-74
2023/04/11 14:01:21;;;;;;;10.27;1.27;;;;;;;;;;5035943;28;20075;-72
2023/04/11 14:03:46;;;;;;;2.60;1.10;;;;;;;;;;5037477;28;20022;-73
2023/04/11 14:06:11;;;;;;;10.18;1.45;;;;;;;;;;5029369;28;20816;-73
2023/04/11 14:08:36;;;;;;;4.53;1.15;;;;;;;;;;5034928;28;20486;-72
2023/04/11 14:11:02;;;;;;;4.70;1.02;;;;;;;;;;5030842;28;20025;-73
2023/04/11 14:13:27;;;;;;;2.97;0.85;;;;;;;;;;5030838;28;20104;-72
2023/04/11 14:15:52;;;;;;;14.80;1.40;;;;;;;;;;5033445;28;20029;-73
2023/04/11 14:18:17;;;;;;;6.47;2.70;;;;;;;;;;5030613;28;20287;-71
2023/04/11 14:20:42;;;;;;;3.30;0.90;;;;;;;;;;5036563;28;20021;-72
2023/04/11 14:23:09;;;;;;;3.08;0.75;;;;;;;;;;5029583;28;20264;-73
2023/04/11 14:25:34;;;;;;;7.03;1.15;;;;;;;;;;5029533;28;20383;-73
2023/04/11 14:28:00;;;;;;;7.03;1.15;;;;;;;;;;5031180;28;20021;-73
2023/04/11 14:30:25;;;;;;;7.00;1.00;;;;;;;;;;5029088;28;20466;-72